CheckWX is a tool to help pilots better visualize weather data.  It is not intended as a substitute for an official pre-flight weather briefing.

12:16:09 UTC

KHVS METAR
Hartsville Regional Airport
Hartsville, South Carolina, USA
Current

21 mins ago

KHVS 261155Z AUTO 01006KT 10SM CLR 25/18 A3013 RMK AO2
Observed
Jun-26 @ 11:55 UTC
Wind
  • 010° at 6 KTS
Visibility
10 SM
Flight Rules
VFR
Cloud Levels
  • Clear skies
Temperature
25°C / 77°F
Dewpoint
18°C / 64°F
Humidity
65%
Altimeter
30.13" Hg
Pressure
1020.32 hPa
Previous

41 mins ago

KHVS 261135Z AUTO 36005KT 10SM CLR 24/18 A3012 RMK AO2
Observed
Jun-26 @ 11:35 UTC
Wind
  • 360° at 5 KTS
Visibility
10 SM
Flight Rules
VFR
Cloud Levels
  • Clear skies
Temperature
24°C / 75°F
Dewpoint
18°C / 64°F
Humidity
69%
Altimeter
30.12" Hg
Pressure
1020.02 hPa
Previous

1 hour ago

KHVS 261115Z AUTO 36004KT 10SM CLR 23/18 A3011 RMK AO2
Observed
Jun-26 @ 11:15 UTC
Wind
  • 360° at 4 KTS
Visibility
10 SM
Flight Rules
VFR
Cloud Levels
  • Clear skies
Temperature
23°C / 73°F
Dewpoint
18°C / 64°F
Humidity
74%
Altimeter
30.11" Hg
Pressure
1019.62 hPa